sensor_id;sensor_type;location;lat;lon;timestamp;pressure;altitude;pressure_sealevel;temperature;humidity
39739;BME280;25422;48.286;8.484;2023-04-09T00:00:35;94603.53;;;2.16;100.00
39739;BME280;25422;48.286;8.484;2023-04-09T00:03:01;94600.56;;;2.09;100.00
39739;BME280;25422;48.286;8.484;2023-04-09T00:05:26;94602.31;;;2.09;100.00
39739;BME280;25422;48.286;8.484;2023-04-09T00:07:52;94601.91;;;2.02;100.00
39739;BME280;25422;48.286;8.484;2023-04-09T00:10:17;94594.91;;;1.91;100.00
39739;BME280;25422;48.286;8.484;2023-04-09T00:12:43;94599.78;;;1.83;100.00
39739;BME280;25422;48.286;8.484;2023-04-09T00:15:08;94593.06;;;1.80;100.00
39739;BME280;25422;48.286;8.484;2023-04-09T00:17:34;94589.72;;;1.67;100.00
39739;BME280;25422;48.286;8.484;2023-04-09T00:19:59;94589.59;;;1.68;100.00
39739;BME280;25422;48.286;8.484;2023-04-09T00:22:25;94590.22;;;1.59;100.00
39739;BME280;25422;48.286;8.484;2023-04-09T00:24:50;94584.44;;;1.56;100.00
39739;BME280;25422;48.286;8.484;2023-04-09T00:27:16;94582.47;;;1.46;100.00
39739;BME280;25422;48.286;8.484;2023-04-09T00:29:41;94587.66;;;1.33;100.00
39739;BME280;25422;48.286;8.484;2023-04-09T00:32:08;94576.81;;;1.28;100.00
39739;BME280;25422;48.286;8.484;2023-04-09T00:34:33;94581.66;;;1.20;100.00
39739;BME280;25422;48.286;8.484;2023-04-09T00:36:59;94598.59;;;1.11;100.00
39739;BME280;25422;48.286;8.484;2023-04-09T00:39:25;94587.34;;;0.99;100.00
39739;BME280;25422;48.286;8.484;2023-04-09T00:41:57;94588.31;;;0.84;100.00
39739;BME280;25422;48.286;8.484;2023-04-09T00:44:24;94582.84;;;0.76;100.00
39739;BME280;25422;48.286;8.484;2023-04-09T00:46:50;94593.84;;;0.65;100.00
39739;BME280;25422;48.286;8.484;2023-04-09T00:49:16;94586.00;;;0.54;100.00
39739;BME280;25422;48.286;8.484;2023-04-09T00:51:43;94585.47;;;0.48;100.00
39739;BME280;25422;48.286;8.484;2023-04-09T00:54:09;94591.28;;;0.38;100.00
39739;BME280;25422;48.286;8.484;2023-04-09T00:56:35;94588.47;;;0.28;100.00
39739;BME280;25422;48.286;8.484;2023-04-09T00:59:01;94587.84;;;0.24;100.00
39739;BME280;25422;48.286;8.484;2023-04-09T01:01:26;94582.91;;;0.21;100.00
39739;BME280;25422;48.286;8.484;2023-04-09T01:03:52;94584.66;;;0.21;100.00
39739;BME280;25422;48.286;8.484;2023-04-09T01:06:28;94589.81;;;0.21;100.00
39739;BME280;25422;48.286;8.484;2023-04-09T01:09:05;94590.66;;;0.07;100.00
39739;BME280;25422;48.286;8.484;2023-04-09T01:14:37;94591.41;;;-0.06;100.00
39739;BME280;25422;48.286;8.484;2023-04-09T01:17:49;94579.66;;;-0.10;100.00
39739;BME280;25422;48.286;8.484;2023-04-09T01:20:28;94588.69;;;-0.17;100.00
39739;BME280;25422;48.286;8.484;2023-04-09T01:23:13;94593.03;;;-0.32;100.00
39739;BME280;25422;48.286;8.484;2023-04-09T01:28:46;94589.78;;;-0.36;100.00
39739;BME280;25422;48.286;8.484;2023-04-09T01:31:16;94592.91;;;-0.30;100.00
39739;BME280;25422;48.286;8.484;2023-04-09T01:33:43;94589.44;;;-0.29;100.00
39739;BME280;25422;48.286;8.484;2023-04-09T01:36:09;94592.72;;;-0.27;100.00
39739;BME280;25422;48.286;8.484;2023-04-09T01:38:38;94592.91;;;-0.30;100.00
39739;BME280;25422;48.286;8.484;2023-04-09T01:41:06;94595.78;;;-0.35;100.00
39739;BME280;25422;48.286;8.484;2023-04-09T01:43:33;94590.28;;;-0.43;100.00
39739;BME280;25422;48.286;8.484;2023-04-09T01:46:00;94593.75;;;-0.44;100.00
39739;BME280;25422;48.286;8.484;2023-04-09T01:48:28;94596.44;;;-0.46;100.00
39739;BME280;25422;48.286;8.484;2023-04-09T01:50:55;94595.78;;;-0.49;100.00
39739;BME280;25422;48.286;8.484;2023-04-09T01:53:20;94594.22;;;-0.52;100.00
39739;BME280;25422;48.286;8.484;2023-04-09T01:55:46;94591.84;;;-0.55;100.00
39739;BME280;25422;48.286;8.484;2023-04-09T01:58:12;94595.31;;;-0.56;100.00
39739;BME280;25422;48.286;8.484;2023-04-09T02:00:41;94594.66;;;-0.60;100.00
39739;BME280;25422;48.286;8.484;2023-04-09T02:03:17;94590.09;;;-0.69;100.00
39739;BME280;25422;48.286;8.484;2023-04-09T02:05:49;94591.25;;;-0.75;100.00
39739;BME280;25422;48.286;8.484;2023-04-09T02:08:19;94595.88;;;-0.80;100.00
39739;BME280;25422;48.286;8.484;2023-04-09T02:10:49;94591.19;;;-0.88;100.00
39739;BME280;25422;48.286;8.484;2023-04-09T02:13:20;94588.13;;;-0.94;100.00
39739;BME280;25422;48.286;8.484;2023-04-09T02:15:46;94588.31;;;-0.97;100.00
39739;BME280;25422;48.286;8.484;2023-04-09T02:18:27;94582.63;;;-1.03;100.00
39739;BME280;25422;48.286;8.484;2023-04-09T02:20:53;94580.78;;;-1.00;100.00
39739;BME280;25422;48.286;8.484;2023-04-09T02:23:20;94583.72;;;-1.07;100.00
39739;BME280;25422;48.286;8.484;2023-04-09T02:25:45;94576.94;;;-1.08;100.00
39739;BME280;25422;48.286;8.484;2023-04-09T02:28:11;94584.81;;;-1.11;100.00
39739;BME280;25422;48.286;8.484;2023-04-09T02:30:36;94572.59;;;-1.07;100.00
39739;BME280;25422;48.286;8.484;2023-04-09T02:33:02;94573.63;;;-1.10;100.00
39739;BME280;25422;48.286;8.484;2023-04-09T02:35:27;94568.66;;;-1.13;100.00
39739;BME280;25422;48.286;8.484;2023-04-09T02:37:53;94570.88;;;-1.07;100.00
39739;BME280;25422;48.286;8.484;2023-04-09T02:40:18;94571.78;;;-1.08;100.00
39739;BME280;25422;48.286;8.484;2023-04-09T02:42:43;94574.78;;;-1.15;100.00
39739;BME280;25422;48.286;8.484;2023-04-09T02:45:09;94575.34;;;-1.25;100.00
39739;BME280;25422;48.286;8.484;2023-04-09T02:47:34;94577.88;;;-1.39;100.00
39739;BME280;25422;48.286;8.484;2023-04-09T02:50:00;94572.56;;;-1.36;100.00
39739;BME280;25422;48.286;8.484;2023-04-09T02:52:28;94572.91;;;-1.42;100.00
39739;BME280;25422;48.286;8.484;2023-04-09T02:54:53;94574.06;;;-1.48;100.00
39739;BME280;25422;48.286;8.484;2023-04-09T02:57:19;94576.31;;;-1.42;100.00
39739;BME280;25422;48.286;8.484;2023-04-09T02:59:45;94574.25;;;-1.51;100.00
39739;BME280;25422;48.286;8.484;2023-04-09T03:02:11;94578.00;;;-1.57;100.00
39739;BME280;25422;48.286;8.484;2023-04-09T03:04:37;94570.47;;;-1.60;100.00
39739;BME280;25422;48.286;8.484;2023-04-09T03:07:03;94581.56;;;-1.59;100.00
39739;BME280;25422;48.286;8.484;2023-04-09T03:09:28;94573.13;;;-1.61;100.00
39739;BME280;25422;48.286;8.484;2023-04-09T03:11:55;94575.59;;;-1.60;100.00
39739;BME280;25422;48.286;8.484;2023-04-09T03:14:22;94581.47;;;-1.58;100.00
39739;BME280;25422;48.286;8.484;2023-04-09T03:16:47;94573.75;;;-1.58;100.00
39739;BME280;25422;48.286;8.484;2023-04-09T03:19:13;94579.75;;;-1.57;100.00
39739;BME280;25422;48.286;8.484;2023-04-09T03:21:38;94567.34;;;-1.65;100.00
39739;BME280;25422;48.286;8.484;2023-04-09T03:24:04;94575.44;;;-1.73;100.00
39739;BME280;25422;48.286;8.484;2023-04-09T03:26:30;94573.88;;;-1.75;100.00
39739;BME280;25422;48.286;8.484;2023-04-09T03:29:03;94578.59;;;-1.67;100.00
39739;BME280;25422;48.286;8.484;2023-04-09T03:31:28;94576.44;;;-1.75;100.00
39739;BME280;25422;48.286;8.484;2023-04-09T03:33:54;94564.56;;;-1.92;100.00
39739;BME280;25422;48.286;8.484;2023-04-09T03:36:20;94569.88;;;-1.95;100.00
39739;BME280;25422;48.286;8.484;2023-04-09T03:38:58;94570.03;;;-1.98;100.00
39739;BME280;25422;48.286;8.484;2023-04-09T03:41:29;94563.31;;;-2.01;100.00
39739;BME280;25422;48.286;8.484;2023-04-09T03:43:57;94582.75;;;-1.97;100.00
39739;BME280;25422;48.286;8.484;2023-04-09T03:46:27;94572.09;;;-2.05;100.00
39739;BME280;25422;48.286;8.484;2023-04-09T03:48:54;94582.94;;;-2.16;100.00
39739;BME280;25422;48.286;8.484;2023-04-09T03:51:20;94573.16;;;-2.25;100.00
39739;BME280;25422;48.286;8.484;2023-04-09T03:53:51;94570.34;;;-2.37;100.00
39739;BME280;25422;48.286;8.484;2023-04-09T03:56:17;94578.13;;;-2.38;100.00
39739;BME280;25422;48.286;8.484;2023-04-09T03:58:42;94574.00;;;-2.41;100.00
39739;BME280;25422;48.286;8.484;2023-04-09T04:01:10;94574.72;;;-2.55;100.00
39739;BME280;25422;48.286;8.484;2023-04-09T04:03:42;94574.47;;;-2.50;100.00
39739;BME280;25422;48.286;8.484;2023-04-09T04:06:22;94570.69;;;-2.43;100.00
39739;BME280;25422;48.286;8.484;2023-04-09T04:08:55;94574.97;;;-2.43;100.00
39739;BME280;25422;48.286;8.484;2023-04-09T04:11:29;94565.50;;;-2.41;100.00
39739;BME280;25422;48.286;8.484;2023-04-09T04:13:54;94570.69;;;-2.43;100.00
39739;BME280;25422;48.286;8.484;2023-04-09T04:16:21;94571.53;;;-2.42;100.00
39739;BME280;25422;48.286;8.484;2023-04-09T04:18:47;94569.69;;;-2.40;100.00
39739;BME280;25422;48.286;8.484;2023-04-09T04:21:14;94569.69;;;-2.40;100.00
39739;BME280;25422;48.286;8.484;2023-04-09T04:23:43;94569.94;;;-2.45;100.00
39739;BME280;25422;48.286;8.484;2023-04-09T04:26:18;94564.16;;;-2.48;100.00
39739;BME280;25422;48.286;8.484;2023-04-09T04:28:43;94569.84;;;-2.43;100.00
39739;BME280;25422;48.286;8.484;2023-04-09T04:31:14;94571.03;;;-2.33;100.00
39739;BME280;25422;48.286;8.484;2023-04-09T04:33:40;94565.66;;;-2.28;100.00
39739;BME280;25422;48.286;8.484;2023-04-09T04:36:11;94577.97;;;-2.35;100.00
39739;BME280;25422;48.286;8.484;2023-04-09T04:38:44;94577.56;;;-2.27;100.00
39739;BME280;25422;48.286;8.484;2023-04-09T04:41:18;94577.16;;;-2.19;100.00
39739;BME280;25422;48.286;8.484;2023-04-09T04:43:51;94572.53;;;-2.29;100.00
39739;BME280;25422;48.286;8.484;2023-04-09T04:46:21;94568.41;;;-2.15;100.00
39739;BME280;25422;48.286;8.484;2023-04-09T04:48:47;94573.03;;;-2.22;100.00
39739;BME280;25422;48.286;8.484;2023-04-09T04:51:13;94572.34;;;-2.26;100.00
39739;BME280;25422;48.286;8.484;2023-04-09T04:53:44;94577.47;;;-2.26;100.00
39739;BME280;25422;48.286;8.484;2023-04-09T04:56:15;94570.03;;;-2.30;100.00
39739;BME280;25422;48.286;8.484;2023-04-09T04:58:57;94573.34;;;-2.28;100.00
39739;BME280;25422;48.286;8.484;2023-04-09T05:01:23;94571.84;;;-2.32;100.00
39739;BME280;25422;48.286;8.484;2023-04-09T05:03:48;94571.75;;;-2.31;100.00
39739;BME280;25422;48.286;8.484;2023-04-09T05:06:27;94572.75;;;-2.33;100.00
39739;BME280;25422;48.286;8.484;2023-04-09T05:08:55;94570.53;;;-2.40;100.00
39739;BME280;25422;48.286;8.484;2023-04-09T05:11:24;94578.63;;;-2.47;100.00
39739;BME280;25422;48.286;8.484;2023-04-09T05:13:49;94577.03;;;-2.50;100.00
39739;BME280;25422;48.286;8.484;2023-04-09T05:16:17;94576.63;;;-2.58;100.00
39739;BME280;25422;48.286;8.484;2023-04-09T05:18:46;94589.25;;;-2.55;100.00
39739;BME280;25422;48.286;8.484;2023-04-09T05:21:12;94593.31;;;-2.51;100.00
39739;BME280;25422;48.286;8.484;2023-04-09T05:23:40;94591.44;;;-2.31;100.00
39739;BME280;25422;48.286;8.484;2023-04-09T05:26:07;94589.81;;;-2.16;100.00
39739;BME280;25422;48.286;8.484;2023-04-09T05:28:42;94591.56;;;-2.17;100.00
39739;BME280;25422;48.286;8.484;2023-04-09T05:31:13;94597.91;;;-1.92;100.00
39739;BME280;25422;48.286;8.484;2023-04-09T05:33:46;94597.22;;;-1.80;100.00
39739;BME280;25422;48.286;8.484;2023-04-09T05:36:18;94589.63;;;-1.65;100.00
39739;BME280;25422;48.286;8.484;2023-04-09T05:38:45;94593.81;;;-1.64;100.00
39739;BME280;25422;48.286;8.484;2023-04-09T05:41:11;94592.31;;;-1.53;100.00
39739;BME280;25422;48.286;8.484;2023-04-09T05:43:45;94591.88;;;-1.45;100.00
39739;BME280;25422;48.286;8.484;2023-04-09T05:46:11;94588.78;;;-1.36;100.00
39739;BME280;25422;48.286;8.484;2023-04-09T05:48:36;94582.53;;;-1.46;100.00
39739;BME280;25422;48.286;8.484;2023-04-09T05:51:02;94577.97;;;-1.41;100.00
39739;BME280;25422;48.286;8.484;2023-04-09T05:53:28;94588.44;;;-1.29;100.00
39739;BME280;25422;48.286;8.484;2023-04-09T05:55:53;94576.34;;;-1.27;100.00
39739;BME280;25422;48.286;8.484;2023-04-09T05:58:23;94577.63;;;-1.20;100.00
39739;BME280;25422;48.286;8.484;2023-04-09T06:00:49;94578.63;;;-0.92;100.00
39739;BME280;25422;48.286;8.484;2023-04-09T06:03:15;94571.72;;;-0.92;100.00
39739;BME280;25422;48.286;8.484;2023-04-09T06:05:41;94574.56;;;-0.82;100.00
39739;BME280;25422;48.286;8.484;2023-04-09T06:08:06;94578.34;;;-0.44;100.00
39739;BME280;25422;48.286;8.484;2023-04-09T06:10:32;94578.59;;;-0.35;100.00
39739;BME280;25422;48.286;8.484;2023-04-09T06:12:58;94586.81;;;-0.15;100.00
39739;BME280;25422;48.286;8.484;2023-04-09T06:15:23;94582.72;;;-0.18;100.00
39739;BME280;25422;48.286;8.484;2023-04-09T06:17:48;94577.13;;;-0.53;100.00
39739;BME280;25422;48.286;8.484;2023-04-09T06:20:14;94597.34;;;-0.47;100.00
39739;BME280;25422;48.286;8.484;2023-04-09T06:22:39;94586.88;;;-0.44;100.00
39739;BME280;25422;48.286;8.484;2023-04-09T06:25:05;94590.63;;;-0.49;100.00
39739;BME280;25422;48.286;8.484;2023-04-09T06:27:31;94588.81;;;-0.62;100.00
39739;BME280;25422;48.286;8.484;2023-04-09T06:29:56;94604.50;;;-0.38;100.00
39739;BME280;25422;48.286;8.484;2023-04-09T06:32:21;94598.16;;;-0.18;100.00
39739;BME280;25422;48.286;8.484;2023-04-09T06:34:47;94601.09;;;0.18;100.00
39739;BME280;25422;48.286;8.484;2023-04-09T06:37:12;94591.84;;;0.43;100.00
39739;BME280;25422;48.286;8.484;2023-04-09T06:39:38;94596.59;;;0.49;100.00
39739;BME280;25422;48.286;8.484;2023-04-09T06:42:04;94592.28;;;0.62;100.00
39739;BME280;25422;48.286;8.484;2023-04-09T06:44:38;94602.59;;;0.62;100.00
39739;BME280;25422;48.286;8.484;2023-04-09T06:47:03;94602.84;;;0.85;100.00
39739;BME280;25422;48.286;8.484;2023-04-09T06:49:29;94604.00;;;0.41;100.00
39739;BME280;25422;48.286;8.484;2023-04-09T06:51:54;94599.41;;;0.31;100.00
39739;BME280;25422;48.286;8.484;2023-04-09T06:54:20;94606.38;;;0.44;100.00
39739;BME280;25422;48.286;8.484;2023-04-09T06:56:45;94613.84;;;1.27;100.00
39739;BME280;25422;48.286;8.484;2023-04-09T06:59:11;94607.44;;;1.72;100.00
39739;BME280;25422;48.286;8.484;2023-04-09T07:01:37;94610.84;;;2.22;100.00
39739;BME280;25422;48.286;8.484;2023-04-09T07:04:03;94613.06;;;2.99;100.00
39739;BME280;25422;48.286;8.484;2023-04-09T07:06:28;94605.94;;;3.84;100.00
39739;BME280;25422;48.286;8.484;2023-04-09T07:09:07;94605.28;;;4.26;100.00
39739;BME280;25422;48.286;8.484;2023-04-09T07:11:32;94607.16;;;5.84;100.00
39739;BME280;25422;48.286;8.484;2023-04-09T07:13:58;94602.34;;;6.51;100.00
39739;BME280;25422;48.286;8.484;2023-04-09T07:16:23;94606.19;;;7.25;100.00
39739;BME280;25422;48.286;8.484;2023-04-09T07:18:49;94603.69;;;8.28;100.00
39739;BME280;25422;48.286;8.484;2023-04-09T07:21:15;94602.47;;;9.33;100.00
39739;BME280;25422;48.286;8.484;2023-04-09T07:23:41;94604.41;;;10.01;88.38
39739;BME280;25422;48.286;8.484;2023-04-09T07:26:06;94594.13;;;10.42;100.00
39739;BME280;25422;48.286;8.484;2023-04-09T07:28:32;94600.66;;;10.89;79.13
39739;BME280;25422;48.286;8.484;2023-04-09T07:30:59;94591.41;;;12.17;73.17
39739;BME280;25422;48.286;8.484;2023-04-09T07:33:25;94599.03;;;11.71;66.64
39739;BME280;25422;48.286;8.484;2023-04-09T07:35:51;94595.53;;;12.11;68.36
39739;BME280;25422;48.286;8.484;2023-04-09T07:38:16;94599.19;;;11.28;68.22
39739;BME280;25422;48.286;8.484;2023-04-09T07:40:42;94597.97;;;9.95;80.35
39739;BME280;25422;48.286;8.484;2023-04-09T07:43:07;94600.41;;;10.23;82.08
39739;BME280;25422;48.286;8.484;2023-04-09T07:45:33;94609.34;;;9.78;85.43
39739;BME280;25422;48.286;8.484;2023-04-09T07:47:58;94603.28;;;11.47;73.61
39739;BME280;25422;48.286;8.484;2023-04-09T07:50:23;94612.78;;;11.73;72.79
39739;BME280;25422;48.286;8.484;2023-04-09T07:52:49;94607.72;;;11.38;72.69
39739;BME280;25422;48.286;8.484;2023-04-09T07:55:15;94614.75;;;11.29;67.51
39739;BME280;25422;48.286;8.484;2023-04-09T07:57:40;94611.16;;;11.55;67.51
39739;BME280;25422;48.286;8.484;2023-04-09T08:00:07;94613.47;;;11.67;65.64
39739;BME280;25422;48.286;8.484;2023-04-09T08:02:39;94604.47;;;12.34;62.03
39739;BME280;25422;48.286;8.484;2023-04-09T08:05:05;94609.91;;;14.03;56.45
39739;BME280;25422;48.286;8.484;2023-04-09T08:07:30;94621.44;;;12.54;57.66
39739;BME280;25422;48.286;8.484;2023-04-09T08:09:56;94620.00;;;11.38;62.00
39739;BME280;25422;48.286;8.484;2023-04-09T08:12:21;94618.22;;;12.44;58.67
39739;BME280;25422;48.286;8.484;2023-04-09T08:14:47;94615.47;;;12.21;59.16
39739;BME280;25422;48.286;8.484;2023-04-09T08:17:12;94617.31;;;12.60;57.88
39739;BME280;25422;48.286;8.484;2023-04-09T08:19:38;94622.63;;;11.95;60.96
39739;BME280;25422;48.286;8.484;2023-04-09T08:22:04;94625.56;;;9.90;70.01
39739;BME280;25422;48.286;8.484;2023-04-09T08:24:29;94624.97;;;10.73;67.48
39739;BME280;25422;48.286;8.484;2023-04-09T08:26:56;94619.09;;;10.88;64.16
39739;BME280;25422;48.286;8.484;2023-04-09T08:29:21;94614.53;;;12.93;58.64
39739;BME280;25422;48.286;8.484;2023-04-09T08:31:47;94616.78;;;12.33;61.04
39739;BME280;25422;48.286;8.484;2023-04-09T08:34:12;94621.94;;;12.58;57.42
39739;BME280;25422;48.286;8.484;2023-04-09T08:36:40;94633.38;;;12.17;58.22
39739;BME280;25422;48.286;8.484;2023-04-09T08:39:05;94622.94;;;12.48;58.14
39739;BME280;25422;48.286;8.484;2023-04-09T08:41:31;94627.88;;;13.14;56.54
39739;BME280;25422;48.286;8.484;2023-04-09T08:43:57;94625.94;;;12.77;54.23
39739;BME280;25422;48.286;8.484;2023-04-09T08:46:23;94625.66;;;13.49;54.06
39739;BME280;25422;48.286;8.484;2023-04-09T08:48:49;94617.97;;;12.62;52.86
39739;BME280;25422;48.286;8.484;2023-04-09T08:51:17;94616.09;;;12.39;53.16
39739;BME280;25422;48.286;8.484;2023-04-09T08:53:47;94623.28;;;11.32;58.31
39739;BME280;25422;48.286;8.484;2023-04-09T08:56:14;94620.75;;;10.89;60.30
39739;BME280;25422;48.286;8.484;2023-04-09T08:58:42;94632.75;;;9.88;60.79
39739;BME280;25422;48.286;8.484;2023-04-09T09:01:40;94637.53;;;10.27;59.38
39739;BME280;25422;48.286;8.484;2023-04-09T09:04:07;94639.19;;;9.75;58.88
39739;BME280;25422;48.286;8.484;2023-04-09T09:06:38;94630.81;;;9.27;60.38
39739;BME280;25422;48.286;8.484;2023-04-09T09:09:12;94629.88;;;9.55;58.50
39739;BME280;25422;48.286;8.484;2023-04-09T09:11:43;94633.50;;;9.54;59.28
39739;BME280;25422;48.286;8.484;2023-04-09T09:14:10;94630.66;;;10.00;59.83
39739;BME280;25422;48.286;8.484;2023-04-09T09:16:37;94635.75;;;10.01;55.82
39739;BME280;25422;48.286;8.484;2023-04-09T09:19:07;94634.97;;;10.09;55.74
39739;BME280;25422;48.286;8.484;2023-04-09T09:21:32;94641.19;;;9.82;58.26
39739;BME280;25422;48.286;8.484;2023-04-09T09:23:59;94638.94;;;9.42;58.05
39739;BME280;25422;48.286;8.484;2023-04-09T09:26:28;94642.16;;;9.18;59.85
39739;BME280;25422;48.286;8.484;2023-04-09T09:28:54;94640.16;;;8.94;60.70
39739;BME280;25422;48.286;8.484;2023-04-09T09:31:21;94638.66;;;8.91;61.26
39739;BME280;25422;48.286;8.484;2023-04-09T09:33:47;94638.34;;;8.49;63.80
39739;BME280;25422;48.286;8.484;2023-04-09T09:36:14;94643.88;;;8.46;69.08
39739;BME280;25422;48.286;8.484;2023-04-09T09:39:10;94652.66;;;7.97;71.28
39739;BME280;25422;48.286;8.484;2023-04-09T09:41:37;94649.91;;;9.10;71.34
39739;BME280;25422;48.286;8.484;2023-04-09T09:44:03;94634.59;;;10.30;61.50
39739;BME280;25422;48.286;8.484;2023-04-09T09:46:36;94636.56;;;11.38;59.33
39739;BME280;25422;48.286;8.484;2023-04-09T09:49:03;94633.69;;;10.99;59.34
39739;BME280;25422;48.286;8.484;2023-04-09T09:51:30;94640.28;;;10.52;58.54
39739;BME280;25422;48.286;8.484;2023-04-09T09:53:57;94636.41;;;10.03;58.15
39739;BME280;25422;48.286;8.484;2023-04-09T09:56:29;94637.06;;;9.79;59.12
39739;BME280;25422;48.286;8.484;2023-04-09T09:59:18;94637.91;;;9.35;65.17
39739;BME280;25422;48.286;8.484;2023-04-09T10:01:47;94637.53;;;9.30;65.47
39739;BME280;25422;48.286;8.484;2023-04-09T10:04:17;94629.81;;;10.25;62.20
39739;BME280;25422;48.286;8.484;2023-04-09T10:06:44;94628.41;;;10.05;64.90
39739;BME280;25422;48.286;8.484;2023-04-09T10:09:10;94633.19;;;9.57;67.42
39739;BME280;25422;48.286;8.484;2023-04-09T10:11:38;94632.16;;;9.76;67.03
39739;BME280;25422;48.286;8.484;2023-04-09T10:14:06;94634.97;;;9.56;66.50
39739;BME280;25422;48.286;8.484;2023-04-09T10:16:32;94622.38;;;10.04;63.92
39739;BME280;25422;48.286;8.484;2023-04-09T10:18:58;94619.88;;;10.29;60.74
39739;BME280;25422;48.286;8.484;2023-04-09T10:21:52;94609.69;;;10.18;55.97
39739;BME280;25422;48.286;8.484;2023-04-09T10:24:22;94620.44;;;9.54;56.85
39739;BME280;25422;48.286;8.484;2023-04-09T10:26:47;94618.59;;;9.99;55.66
39739;BME280;25422;48.286;8.484;2023-04-09T10:29:16;94617.22;;;9.42;54.45
39739;BME280;25422;48.286;8.484;2023-04-09T10:32:07;94613.22;;;10.00;52.66
39739;BME280;25422;48.286;8.484;2023-04-09T10:34:41;94614.41;;;9.61;52.36
39739;BME280;25422;48.286;8.484;2023-04-09T10:37:08;94619.91;;;9.76;53.07
39739;BME280;25422;48.286;8.484;2023-04-09T10:39:39;94619.00;;;9.59;53.90
39739;BME280;25422;48.286;8.484;2023-04-09T10:42:14;94622.94;;;9.64;54.79
39739;BME280;25422;48.286;8.484;2023-04-09T10:44:40;94614.91;;;9.57;54.88
39739;BME280;25422;48.286;8.484;2023-04-09T10:47:10;94616.28;;;9.43;55.49
39739;BME280;25422;48.286;8.484;2023-04-09T10:49:39;94616.25;;;9.25;56.24
39739;BME280;25422;48.286;8.484;2023-04-09T10:52:07;94620.38;;;9.27;56.28
39739;BME280;25422;48.286;8.484;2023-04-09T10:54:42;94619.19;;;9.22;56.28
39739;BME280;25422;48.286;8.484;2023-04-09T10:59:37;94610.09;;;10.31;54.57
39739;BME280;25422;48.286;8.484;2023-04-09T11:02:09;94616.72;;;10.17;55.17
39739;BME280;25422;48.286;8.484;2023-04-09T11:05:05;94612.38;;;9.73;56.38
39739;BME280;25422;48.286;8.484;2023-04-09T11:07:44;94597.81;;;10.32;54.53
39739;BME280;25422;48.286;8.484;2023-04-09T11:10:11;94607.84;;;9.75;54.84
39739;BME280;25422;48.286;8.484;2023-04-09T11:12:36;94605.59;;;9.89;53.99
39739;BME280;25422;48.286;8.484;2023-04-09T11:15:02;94619.53;;;9.63;55.55
39739;BME280;25422;48.286;8.484;2023-04-09T11:17:28;94622.97;;;9.45;56.33
39739;BME280;25422;48.286;8.484;2023-04-09T11:19:54;94607.84;;;9.31;57.93
39739;BME280;25422;48.286;8.484;2023-04-09T11:22:20;94608.44;;;9.69;58.36
39739;BME280;25422;48.286;8.484;2023-04-09T11:24:45;94619.31;;;9.38;60.93
39739;BME280;25422;48.286;8.484;2023-04-09T11:27:12;94621.38;;;9.26;60.26
39739;BME280;25422;48.286;8.484;2023-04-09T11:29:37;94613.66;;;9.43;62.34
39739;BME280;25422;48.286;8.484;2023-04-09T11:32:03;94615.06;;;9.55;61.08
39739;BME280;25422;48.286;8.484;2023-04-09T11:34:30;94618.25;;;9.49;60.36
39739;BME280;25422;48.286;8.484;2023-04-09T11:36:55;94614.56;;;9.34;60.91
39739;BME280;25422;48.286;8.484;2023-04-09T11:39:25;94604.63;;;10.16;56.70
39739;BME280;25422;48.286;8.484;2023-04-09T11:41:57;94607.16;;;10.34;54.45
39739;BME280;25422;48.286;8.484;2023-04-09T11:44:26;94602.53;;;10.54;53.66
39739;BME280;25422;48.286;8.484;2023-04-09T11:46:51;94609.09;;;9.98;52.11
39739;BME280;25422;48.286;8.484;2023-04-09T11:49:17;94606.34;;;10.34;51.44
39739;BME280;25422;48.286;8.484;2023-04-09T11:51:42;94608.63;;;10.02;51.27
39739;BME280;25422;48.286;8.484;2023-04-09T11:54:10;94600.56;;;10.65;50.52
39739;BME280;25422;48.286;8.484;2023-04-09T11:56:36;94612.56;;;10.84;49.47
39739;BME280;25422;48.286;8.484;2023-04-09T11:59:02;94609.47;;;10.88;48.51
39739;BME280;25422;48.286;8.484;2023-04-09T12:01:33;94606.25;;;10.43;50.03
39739;BME280;25422;48.286;8.484;2023-04-09T12:03:59;94611.16;;;10.46;51.66
39739;BME280;25422;48.286;8.484;2023-04-09T12:06:26;94621.50;;;9.95;53.18
39739;BME280;25422;48.286;8.484;2023-04-09T12:08:56;94609.38;;;10.21;51.04
39739;BME280;25422;48.286;8.484;2023-04-09T12:11:27;94615.59;;;10.20;54.00
39739;BME280;25422;48.286;8.484;2023-04-09T12:14:03;94614.53;;;10.04;55.92
39739;BME280;25422;48.286;8.484;2023-04-09T12:16:30;94616.91;;;10.24;54.26
39739;BME280;25422;48.286;8.484;2023-04-09T12:19:06;94605.69;;;9.97;53.75
39739;BME280;25422;48.286;8.484;2023-04-09T12:21:46;94611.00;;;10.13;53.28
39739;BME280;25422;48.286;8.484;2023-04-09T12:24:15;94610.81;;;11.75;49.93
39739;BME280;25422;48.286;8.484;2023-04-09T12:26:42;94605.22;;;12.03;49.36
39739;BME280;25422;48.286;8.484;2023-04-09T12:29:07;94602.16;;;11.50;48.70
39739;BME280;25422;48.286;8.484;2023-04-09T12:31:33;94606.09;;;11.29;49.69
39739;BME280;25422;48.286;8.484;2023-04-09T12:33:58;94610.13;;;11.07;49.03
39739;BME280;25422;48.286;8.484;2023-04-09T12:36:24;94612.94;;;11.13;49.18
39739;BME280;25422;48.286;8.484;2023-04-09T12:38:50;94609.31;;;10.98;51.22
39739;BME280;25422;48.286;8.484;2023-04-09T12:41:15;94610.25;;;10.72;51.44
39739;BME280;25422;48.286;8.484;2023-04-09T12:43:41;94599.47;;;9.98;52.95
39739;BME280;25422;48.286;8.484;2023-04-09T12:46:10;94606.81;;;9.94;51.63
39739;BME280;25422;48.286;8.484;2023-04-09T12:48:35;94604.00;;;10.22;51.38
39739;BME280;25422;48.286;8.484;2023-04-09T12:51:00;94595.91;;;12.48;46.69
39739;BME280;25422;48.286;8.484;2023-04-09T12:53:27;94590.50;;;12.41;47.60
39739;BME280;25422;48.286;8.484;2023-04-09T12:55:52;94583.06;;;13.92;42.02
39739;BME280;25422;48.286;8.484;2023-04-09T12:58:18;94590.78;;;13.32;42.05
39739;BME280;25422;48.286;8.484;2023-04-09T13:00:43;94592.13;;;13.52;41.67
39739;BME280;25422;48.286;8.484;2023-04-09T13:03:08;94591.31;;;14.34;41.89
39739;BME280;25422;48.286;8.484;2023-04-09T13:05:34;94595.41;;;14.52;40.39
39739;BME280;25422;48.286;8.484;2023-04-09T13:08:03;94599.69;;;13.70;41.29
39739;BME280;25422;48.286;8.484;2023-04-09T13:10:31;94594.09;;;13.03;42.64